sensor_id;sensor_type;location;lat;lon;timestamp;pressure;altitude;pressure_sealevel;temperature;humidity
62703;BME280;66022;50.448;18.122;2023-06-01T00:02:59;99423.63;;;14.05;61.34
62703;BME280;66022;50.448;18.122;2023-06-01T00:07:07;99421.62;;;14.08;61.34
62703;BME280;66022;50.448;18.122;2023-06-01T00:11:15;99419.59;;;14.10;60.32
62703;BME280;66022;50.448;18.122;2023-06-01T00:15:23;99418.82;;;14.13;62.05
62703;BME280;66022;50.448;18.122;2023-06-01T00:19:31;99418.70;;;14.16;61.12
62703;BME280;66022;50.448;18.122;2023-06-01T00:23:39;99418.41;;;14.12;65.94
62703;BME280;66022;50.448;18.122;2023-06-01T00:27:47;99417.35;;;14.09;61.03
62703;BME280;66022;50.448;18.122;2023-06-01T00:31:55;99416.14;;;14.02;61.42
62703;BME280;66022;50.448;18.122;2023-06-01T00:36:03;99416.56;;;13.87;63.73
62703;BME280;66022;50.448;18.122;2023-06-01T00:40:11;99416.06;;;13.79;62.15
62703;BME280;66022;50.448;18.122;2023-06-01T00:44:19;99415.26;;;13.70;67.96
62703;BME280;66022;50.448;18.122;2023-06-01T00:48:27;99415.95;;;13.65;63.66
62703;BME280;66022;50.448;18.122;2023-06-01T00:52:35;99415.19;;;13.59;63.72
62703;BME280;66022;50.448;18.122;2023-06-01T00:56:43;99413.98;;;13.49;64.70
62703;BME280;66022;50.448;18.122;2023-06-01T01:00:51;99413.25;;;13.40;64.14
62703;BME280;66022;50.448;18.122;2023-06-01T01:04:59;99413.67;;;13.28;66.90
62703;BME280;66022;50.448;18.122;2023-06-01T01:09:13;99412.34;;;13.20;65.00
62703;BME280;66022;50.448;18.122;2023-06-01T01:21:32;99406.76;;;13.08;65.98
62703;BME280;66022;50.448;18.122;2023-06-01T01:29:47;99403.70;;;13.01;64.82
62703;BME280;66022;50.448;18.122;2023-06-01T01:33:55;99403.19;;;12.89;73.99
62703;BME280;66022;50.448;18.122;2023-06-01T01:38:03;99402.28;;;12.80;66.65
62703;BME280;66022;50.448;18.122;2023-06-01T01:42:11;99401.67;;;12.73;66.40
62703;BME280;66022;50.448;18.122;2023-06-01T01:50:28;99398.80;;;12.64;66.80
62703;BME280;66022;50.448;18.122;2023-06-01T01:54:39;99395.65;;;12.62;69.90
62703;BME280;66022;50.448;18.122;2023-06-01T01:58:43;99391.30;;;12.63;66.77
62703;BME280;66022;50.448;18.122;2023-06-01T02:02:51;99386.78;;;12.65;66.67
62703;BME280;66022;50.448;18.122;2023-06-01T02:06:59;99384.57;;;12.66;67.92
62703;BME280;66022;50.448;18.122;2023-06-01T02:11:07;99382.61;;;12.67;66.96
62703;BME280;66022;50.448;18.122;2023-06-01T02:15:15;99381.05;;;12.65;68.55
62703;BME280;66022;50.448;18.122;2023-06-01T02:19:26;99379.22;;;12.61;67.95
62703;BME280;66022;50.448;18.122;2023-06-01T02:23:31;99378.33;;;12.48;73.81
62703;BME280;66022;50.448;18.122;2023-06-01T02:27:39;99377.27;;;12.38;68.41
62703;BME280;66022;50.448;18.122;2023-06-01T02:31:47;99376.70;;;12.31;68.04
62703;BME280;66022;50.448;18.122;2023-06-01T02:35:55;99374.72;;;12.23;71.05
62703;BME280;66022;50.448;18.122;2023-06-01T02:40:03;99373.11;;;12.20;69.57
62703;BME280;66022;50.448;18.122;2023-06-01T02:44:11;99372.29;;;12.17;77.22
62703;BME280;66022;50.448;18.122;2023-06-01T02:48:19;99371.62;;;12.15;68.91
62703;BME280;66022;50.448;18.122;2023-06-01T02:52:27;99370.92;;;12.14;68.73
62703;BME280;66022;50.448;18.122;2023-06-01T02:56:35;99369.16;;;12.07;70.75
62703;BME280;66022;50.448;18.122;2023-06-01T03:00:43;99367.67;;;12.03;70.31
62703;BME280;66022;50.448;18.122;2023-06-01T03:04:51;99366.88;;;12.01;72.59
62703;BME280;66022;50.448;18.122;2023-06-01T03:08:59;99365.86;;;12.01;70.26
62703;BME280;66022;50.448;18.122;2023-06-01T03:13:08;99364.61;;;11.97;71.89
62703;BME280;66022;50.448;18.122;2023-06-01T03:17:16;99363.92;;;11.95;71.38
62703;BME280;66022;50.448;18.122;2023-06-01T03:21:24;99362.92;;;11.94;71.19
62703;BME280;66022;50.448;18.122;2023-06-01T03:25:32;99362.73;;;11.95;72.07
62703;BME280;66022;50.448;18.122;2023-06-01T03:29:40;99363.12;;;11.99;70.37
62703;BME280;66022;50.448;18.122;2023-06-01T03:33:48;99363.87;;;12.03;78.37
62703;BME280;66022;50.448;18.122;2023-06-01T03:37:56;99362.77;;;12.11;69.82
62703;BME280;66022;50.448;18.122;2023-06-01T03:42:04;99361.39;;;12.21;69.07
62703;BME280;66022;50.448;18.122;2023-06-01T03:46:12;99360.66;;;12.29;70.28
62703;BME280;66022;50.448;18.122;2023-06-01T03:50:20;99359.45;;;12.45;69.15
62703;BME280;66022;50.448;18.122;2023-06-01T03:54:27;99357.53;;;12.62;72.91
62703;BME280;66022;50.448;18.122;2023-06-01T03:58:35;99354.78;;;12.83;67.42
62703;BME280;66022;50.448;18.122;2023-06-01T04:02:47;99352.34;;;13.06;67.74
62703;BME280;66022;50.448;18.122;2023-06-01T04:06:52;99350.76;;;13.31;67.11
62703;BME280;66022;50.448;18.122;2023-06-01T04:11:00;99349.22;;;13.58;66.17
62703;BME280;66022;50.448;18.122;2023-06-01T04:15:08;99345.90;;;13.84;68.00
62703;BME280;66022;50.448;18.122;2023-06-01T04:19:16;99342.68;;;14.13;65.53
62703;BME280;66022;50.448;18.122;2023-06-01T04:23:24;99340.62;;;14.47;63.52
62703;BME280;66022;50.448;18.122;2023-06-01T04:27:32;99339.09;;;14.89;63.40
62703;BME280;66022;50.448;18.122;2023-06-01T04:31:40;99336.86;;;15.38;60.19
62703;BME280;66022;50.448;18.122;2023-06-01T04:35:48;99334.64;;;16.00;58.36
62703;BME280;66022;50.448;18.122;2023-06-01T04:39:56;99332.92;;;16.98;51.83
62703;BME280;66022;50.448;18.122;2023-06-01T04:44:04;99330.25;;;18.20;47.44
62703;BME280;66022;50.448;18.122;2023-06-01T04:48:12;99327.98;;;19.86;41.37
62703;BME280;66022;50.448;18.122;2023-06-01T04:52:20;99325.44;;;21.71;37.69
62703;BME280;66022;50.448;18.122;2023-06-01T04:56:28;99323.08;;;23.42;35.14
62703;BME280;66022;50.448;18.122;2023-06-01T05:00:36;99320.50;;;25.20;33.00
62703;BME280;66022;50.448;18.122;2023-06-01T05:04:44;99317.55;;;26.80;30.23
62703;BME280;66022;50.448;18.122;2023-06-01T05:08:52;99315.56;;;28.22;30.33
62703;BME280;66022;50.448;18.122;2023-06-01T05:13:00;99314.50;;;29.42;30.79
62703;BME280;66022;50.448;18.122;2023-06-01T05:17:08;99311.44;;;30.28;29.71
62703;BME280;66022;50.448;18.122;2023-06-01T05:21:16;99308.24;;;31.06;29.78
62703;BME280;66022;50.448;18.122;2023-06-01T05:25:24;99304.91;;;31.63;29.16
62703;BME280;66022;50.448;18.122;2023-06-01T05:29:32;99302.72;;;32.03;30.23
62703;BME280;66022;50.448;18.122;2023-06-01T05:33:40;99301.31;;;32.29;25.33
62703;BME280;66022;50.448;18.122;2023-06-01T05:37:48;99299.41;;;32.63;29.51
62703;BME280;66022;50.448;18.122;2023-06-01T05:41:56;99298.21;;;32.94;29.80
62703;BME280;66022;50.448;18.122;2023-06-01T05:46:04;99296.23;;;32.87;29.63
62703;BME280;66022;50.448;18.122;2023-06-01T05:50:12;99293.95;;;32.85;30.09
62703;BME280;66022;50.448;18.122;2023-06-01T05:54:20;99292.49;;;32.56;31.10
62703;BME280;66022;50.448;18.122;2023-06-01T05:58:28;99291.68;;;32.29;32.11
62703;BME280;66022;50.448;18.122;2023-06-01T06:02:36;99291.72;;;32.04;33.18
62703;BME280;66022;50.448;18.122;2023-06-01T06:06:44;99290.80;;;31.71;32.89
62703;BME280;66022;50.448;18.122;2023-06-01T06:10:52;99290.59;;;31.42;32.93
62703;BME280;66022;50.448;18.122;2023-06-01T06:15:00;99290.30;;;31.13;31.82
62703;BME280;66022;50.448;18.122;2023-06-01T06:19:08;99290.78;;;30.90;33.43
62703;BME280;66022;50.448;18.122;2023-06-01T06:23:16;99289.92;;;30.76;33.95
62703;BME280;66022;50.448;18.122;2023-06-01T06:27:24;99289.79;;;30.57;33.27
62703;BME280;66022;50.448;18.122;2023-06-01T06:31:32;99289.23;;;30.46;32.29
62703;BME280;66022;50.448;18.122;2023-06-01T06:35:40;99288.65;;;30.29;33.09
62703;BME280;66022;50.448;18.122;2023-06-01T06:39:48;99287.01;;;30.26;31.49
62703;BME280;66022;50.448;18.122;2023-06-01T06:43:56;99286.41;;;30.10;29.34
62703;BME280;66022;50.448;18.122;2023-06-01T06:48:04;99284.86;;;30.04;33.21
62703;BME280;66022;50.448;18.122;2023-06-01T06:52:12;99284.59;;;30.06;34.11
62703;BME280;66022;50.448;18.122;2023-06-01T06:56:20;99284.19;;;30.00;33.17
62703;BME280;66022;50.448;18.122;2023-06-01T07:00:28;99282.06;;;30.03;34.41
62703;BME280;66022;50.448;18.122;2023-06-01T07:04:36;99280.55;;;30.00;33.41
62703;BME280;66022;50.448;18.122;2023-06-01T07:08:44;99278.17;;;30.01;33.86
62703;BME280;66022;50.448;18.122;2023-06-01T07:12:52;99276.83;;;30.03;34.27
62703;BME280;66022;50.448;18.122;2023-06-01T07:17:00;99274.41;;;30.07;33.39
62703;BME280;66022;50.448;18.122;2023-06-01T07:21:08;99271.45;;;30.10;33.20
62703;BME280;66022;50.448;18.122;2023-06-01T07:25:16;99268.66;;;30.07;32.96
62703;BME280;66022;50.448;18.122;2023-06-01T07:29:24;99265.55;;;30.02;34.06
62703;BME280;66022;50.448;18.122;2023-06-01T07:33:32;99263.30;;;29.92;31.21
62703;BME280;66022;50.448;18.122;2023-06-01T07:37:40;99261.93;;;29.88;34.43
62703;BME280;66022;50.448;18.122;2023-06-01T07:41:48;99260.16;;;29.89;33.75
62703;BME280;66022;50.448;18.122;2023-06-01T07:45:56;99257.19;;;29.85;33.81
62703;BME280;66022;50.448;18.122;2023-06-01T07:50:04;99254.41;;;29.91;34.45
62703;BME280;66022;50.448;18.122;2023-06-01T07:54:12;99251.48;;;29.88;32.13
62703;BME280;66022;50.448;18.122;2023-06-01T07:58:20;99249.27;;;29.92;33.69
62703;BME280;66022;50.448;18.122;2023-06-01T08:02:28;99247.74;;;29.92;34.64
62703;BME280;66022;50.448;18.122;2023-06-01T08:06:36;99247.13;;;29.91;33.96
62703;BME280;66022;50.448;18.122;2023-06-01T08:10:44;99246.53;;;29.95;33.50
62703;BME280;66022;50.448;18.122;2023-06-01T08:14:52;99246.51;;;29.92;33.69
62703;BME280;66022;50.448;18.122;2023-06-01T08:19:00;99246.56;;;29.93;33.95
62703;BME280;66022;50.448;18.122;2023-06-01T08:23:08;99244.72;;;29.98;34.72
62703;BME280;66022;50.448;18.122;2023-06-01T08:27:16;99242.74;;;30.01;34.66
62703;BME280;66022;50.448;18.122;2023-06-01T08:31:24;99239.48;;;30.08;33.98
62703;BME280;66022;50.448;18.122;2023-06-01T08:35:32;99236.61;;;30.14;33.15
62703;BME280;66022;50.448;18.122;2023-06-01T08:39:40;99232.39;;;30.23;33.32
62703;BME280;66022;50.448;18.122;2023-06-01T08:43:52;99230.47;;;30.20;28.98
62703;BME280;66022;50.448;18.122;2023-06-01T08:47:56;99227.07;;;30.23;33.18
62703;BME280;66022;50.448;18.122;2023-06-01T08:52:07;99222.44;;;30.29;32.08
62703;BME280;66022;50.448;18.122;2023-06-01T08:56:15;99219.44;;;30.21;31.16
62703;BME280;66022;50.448;18.122;2023-06-01T09:00:20;99215.21;;;30.22;32.74
62703;BME280;66022;50.448;18.122;2023-06-01T09:04:28;99210.43;;;30.20;32.30
62703;BME280;66022;50.448;18.122;2023-06-01T09:08:36;99206.64;;;30.24;33.05
62703;BME280;66022;50.448;18.122;2023-06-01T09:16:52;99200.13;;;30.29;31.54
62703;BME280;66022;50.448;18.122;2023-06-01T09:25:08;99191.50;;;30.36;32.01
62703;BME280;66022;50.448;18.122;2023-06-01T09:29:16;99188.05;;;30.40;32.95
62703;BME280;66022;50.448;18.122;2023-06-01T09:33:24;99184.33;;;30.46;32.69
62703;BME280;66022;50.448;18.122;2023-06-01T09:37:32;99181.56;;;30.48;31.15
62703;BME280;66022;50.448;18.122;2023-06-01T09:41:58;99177.01;;;30.52;31.62
62703;BME280;66022;50.448;18.122;2023-06-01T09:49:56;99170.89;;;30.52;32.35
62703;BME280;66022;50.448;18.122;2023-06-01T09:54:04;99168.77;;;30.46;28.87
62703;BME280;66022;50.448;18.122;2023-06-01T10:02:21;99163.58;;;30.55;32.59
62703;BME280;66022;50.448;18.122;2023-06-01T10:06:28;99161.04;;;30.55;32.29
62703;BME280;66022;50.448;18.122;2023-06-01T10:10:36;99157.93;;;30.61;32.75
62703;BME280;66022;50.448;18.122;2023-06-01T10:14:44;99154.19;;;30.65;30.99
62703;BME280;66022;50.448;18.122;2023-06-01T10:18:52;99150.67;;;30.71;31.84
62703;BME280;66022;50.448;18.122;2023-06-01T10:23:00;99145.70;;;30.78;31.63
62703;BME280;66022;50.448;18.122;2023-06-01T10:39:32;99132.79;;;30.89;31.31
62703;BME280;66022;50.448;18.122;2023-06-01T10:43:40;99130.49;;;30.85;27.88
62703;BME280;66022;50.448;18.122;2023-06-01T10:47:48;99127.92;;;30.84;32.17
62703;BME280;66022;50.448;18.122;2023-06-01T10:52:23;99124.52;;;30.83;32.37
62703;BME280;66022;50.448;18.122;2023-06-01T11:04:34;99112.38;;;30.56;31.23
62703;BME280;66022;50.448;18.122;2023-06-01T11:16:44;99100.80;;;30.41;31.67
62703;BME280;66022;50.448;18.122;2023-06-01T11:20:52;99096.88;;;30.35;32.05
62703;BME280;66022;50.448;18.122;2023-06-01T11:25:00;99091.74;;;30.26;30.88
62703;BME280;66022;50.448;18.122;2023-06-01T11:29:09;99088.51;;;30.19;32.04
62703;BME280;66022;50.448;18.122;2023-06-01T11:33:16;99084.38;;;30.15;31.13
62703;BME280;66022;50.448;18.122;2023-06-01T11:37:24;99079.96;;;30.09;30.52
62703;BME280;66022;50.448;18.122;2023-06-01T11:41:32;99076.86;;;30.07;32.75
62703;BME280;66022;50.448;18.122;2023-06-01T11:45:40;99071.86;;;29.98;31.06
62703;BME280;66022;50.448;18.122;2023-06-01T11:49:51;99066.50;;;29.92;31.15
62703;BME280;66022;50.448;18.122;2023-06-01T11:53:58;99061.86;;;29.82;29.91
62703;BME280;66022;50.448;18.122;2023-06-01T11:58:04;99057.37;;;29.75;32.18
62703;BME280;66022;50.448;18.122;2023-06-01T12:02:18;99053.85;;;29.65;33.00
62703;BME280;66022;50.448;18.122;2023-06-01T12:06:20;99051.06;;;29.48;32.26
62703;BME280;66022;50.448;18.122;2023-06-01T12:10:28;99047.36;;;29.38;33.23
62703;BME280;66022;50.448;18.122;2023-06-01T12:14:36;99044.14;;;29.26;31.48
62703;BME280;66022;50.448;18.122;2023-06-01T12:18:44;99040.88;;;29.18;32.14
62703;BME280;66022;50.448;18.122;2023-06-01T12:22:52;99036.81;;;29.12;32.22
62703;BME280;66022;50.448;18.122;2023-06-01T12:27:00;99032.31;;;29.07;32.29
62703;BME280;66022;50.448;18.122;2023-06-01T12:31:09;99027.51;;;29.04;31.85
62703;BME280;66022;50.448;18.122;2023-06-01T12:35:16;99023.30;;;28.99;32.05
62703;BME280;66022;50.448;18.122;2023-06-01T12:43:32;99016.97;;;28.87;29.99
62703;BME280;66022;50.448;18.122;2023-06-01T12:47:40;99014.29;;;28.85;33.16
62703;BME280;66022;50.448;18.122;2023-06-01T12:51:48;99010.38;;;28.86;32.88
62703;BME280;66022;50.448;18.122;2023-06-01T12:55:56;99007.45;;;28.83;33.13
62703;BME280;66022;50.448;18.122;2023-06-01T13:00:05;99004.89;;;28.87;33.44
62703;BME280;66022;50.448;18.122;2023-06-01T13:04:12;99001.67;;;28.86;30.96
62703;BME280;66022;50.448;18.122;2023-06-01T13:08:20;98999.11;;;28.90;33.25
62703;BME280;66022;50.448;18.122;2023-06-01T13:12:28;98995.92;;;28.94;33.26
62703;BME280;66022;50.448;18.122;2023-06-01T13:16:36;98992.61;;;28.96;32.51
62703;BME280;66022;50.448;18.122;2023-06-01T13:20:44;98988.65;;;29.02;32.62
62703;BME280;66022;50.448;18.122;2023-06-01T13:24:52;98986.76;;;29.02;30.24
62703;BME280;66022;50.448;18.122;2023-06-01T13:29:00;98984.01;;;29.02;32.01
62703;BME280;66022;50.448;18.122;2023-06-01T13:33:08;98982.73;;;29.04;32.30
62703;BME280;66022;50.448;18.122;2023-06-01T13:37:16;98979.63;;;29.02;31.93
62703;BME280;66022;50.448;18.122;2023-06-01T13:41:24;98976.79;;;29.03;31.53
62703;BME280;66022;50.448;18.122;2023-06-01T13:45:32;98974.22;;;29.00;31.79
62703;BME280;66022;50.448;18.122;2023-06-01T13:49:43;98970.84;;;28.96;31.82
62703;BME280;66022;50.448;18.122;2023-06-01T13:53:48;98966.15;;;28.87;28.39
62703;BME280;66022;50.448;18.122;2023-06-01T13:57:56;98962.89;;;28.82;32.71
62703;BME280;66022;50.448;18.122;2023-06-01T14:02:05;98959.50;;;28.79;33.68
62703;BME280;66022;50.448;18.122;2023-06-01T14:06:12;98956.19;;;28.69;32.61
62703;BME280;66022;50.448;18.122;2023-06-01T14:10:20;98951.62;;;28.67;32.46
62703;BME280;66022;50.448;18.122;2023-06-01T14:14:28;98947.37;;;28.63;31.09
62703;BME280;66022;50.448;18.122;2023-06-01T14:18:37;98942.16;;;28.62;32.68
62703;BME280;66022;50.448;18.122;2023-06-01T14:22:44;98938.34;;;28.59;32.25
62703;BME280;66022;50.448;18.122;2023-06-01T14:26:52;98934.83;;;28.54;33.17
62703;BME280;66022;50.448;18.122;2023-06-01T14:31:00;98931.98;;;28.52;31.86
62703;BME280;66022;50.448;18.122;2023-06-01T14:35:08;98927.91;;;28.44;31.47
62703;BME280;66022;50.448;18.122;2023-06-01T14:39:16;98923.99;;;28.35;33.86
62703;BME280;66022;50.448;18.122;2023-06-01T14:43:24;98921.17;;;28.30;33.37
62703;BME280;66022;50.448;18.122;2023-06-01T14:47:33;98918.00;;;28.23;33.47
62703;BME280;66022;50.448;18.122;2023-06-01T14:51:40;98915.16;;;28.18;33.08
62703;BME280;66022;50.448;18.122;2023-06-01T14:55:48;98912.98;;;28.09;32.48
62703;BME280;66022;50.448;18.122;2023-06-01T14:59:56;98910.17;;;28.05;32.95
62703;BME280;66022;50.448;18.122;2023-06-01T15:04:04;98907.67;;;27.94;30.63
62703;BME280;66022;50.448;18.122;2023-06-01T15:08:12;98905.77;;;27.89;33.73
62703;BME280;66022;50.448;18.122;2023-06-01T15:12:20;98903.64;;;27.86;34.62
62703;BME280;66022;50.448;18.122;2023-06-01T15:16:28;98901.12;;;27.79;33.92
62703;BME280;66022;50.448;18.122;2023-06-01T15:20:36;98897.39;;;27.75;33.92
62703;BME280;66022;50.448;18.122;2023-06-01T15:24:44;98893.50;;;27.68;33.96
62703;BME280;66022;50.448;18.122;2023-06-01T15:28:52;98889.59;;;27.63;34.70
62703;BME280;66022;50.448;18.122;2023-06-01T15:33:01;98885.52;;;27.57;32.80
62703;BME280;66022;50.448;18.122;2023-06-01T15:37:09;98879.58;;;27.43;33.62
62703;BME280;66022;50.448;18.122;2023-06-01T15:41:16;98874.02;;;27.32;35.09
62703;BME280;66022;50.448;18.122;2023-06-01T15:45:24;98869.34;;;27.21;34.92
62703;BME280;66022;50.448;18.122;2023-06-01T15:49:32;98864.51;;;27.14;34.91
62703;BME280;66022;50.448;18.122;2023-06-01T15:53:40;98860.05;;;27.04;33.13
62703;BME280;66022;50.448;18.122;2023-06-01T15:57:48;98856.32;;;26.97;34.82
62703;BME280;66022;50.448;18.122;2023-06-01T16:01:56;98851.29;;;26.90;35.30
62703;BME280;66022;50.448;18.122;2023-06-01T16:06:04;98846.28;;;26.79;34.76
62703;BME280;66022;50.448;18.122;2023-06-01T16:10:12;98840.45;;;26.74;35.24
62703;BME280;66022;50.448;18.122;2023-06-01T16:14:20;98836.60;;;26.67;33.84
62703;BME280;66022;50.448;18.122;2023-06-01T16:18:28;98832.97;;;26.62;35.77
62703;BME280;66022;50.448;18.122;2023-06-01T16:22:36;98829.69;;;26.57;36.07
62703;BME280;66022;50.448;18.122;2023-06-01T16:26:45;98826.22;;;26.50;35.02
62703;BME280;66022;50.448;18.122;2023-06-01T16:30:53;98823.29;;;26.45;36.67
62703;BME280;66022;50.448;18.122;2023-06-01T16:35:00;98820.97;;;26.38;36.69
62703;BME280;66022;50.448;18.122;2023-06-01T16:39:09;98817.08;;;26.32;35.67
62703;BME280;66022;50.448;18.122;2023-06-01T16:43:17;98814.03;;;26.25;35.73
62703;BME280;66022;50.448;18.122;2023-06-01T16:47:24;98811.27;;;26.16;36.26
62703;BME280;66022;50.448;18.122;2023-06-01T16:51:33;98809.22;;;26.09;36.76
62703;BME280;66022;50.448;18.122;2023-06-01T16:55:41;98807.09;;;26.00;37.83
62703;BME280;66022;50.448;18.122;2023-06-01T16:59:49;98804.49;;;25.93;38.43
62703;BME280;66022;50.448;18.122;2023-06-01T17:03:56;98801.89;;;25.82;35.92
62703;BME280;66022;50.448;18.122;2023-06-01T17:08:05;98798.19;;;25.75;38.39
62703;BME280;66022;50.448;18.122;2023-06-01T17:12:12;98795.67;;;25.68;38.77
62703;BME280;66022;50.448;18.122;2023-06-01T17:16:20;98792.44;;;25.59;37.89
62703;BME280;66022;50.448;18.122;2023-06-01T17:20:28;98790.56;;;25.53;38.85
62703;BME280;66022;50.448;18.122;2023-06-01T17:24:36;98788.86;;;25.43;39.52
62703;BME280;66022;50.448;18.122;2023-06-01T17:28:45;98787.38;;;25.36;40.50
62703;BME280;66022;50.448;18.122;2023-06-01T17:32:53;98785.41;;;25.28;41.14
62703;BME280;66022;50.448;18.122;2023-06-01T17:37:01;98783.62;;;25.18;41.03
62703;BME280;66022;50.448;18.122;2023-06-01T17:41:08;98782.51;;;25.08;40.61
62703;BME280;66022;50.448;18.122;2023-06-01T17:45:16;98781.69;;;24.97;41.74
62703;BME280;66022;50.448;18.122;2023-06-01T17:49:25;98780.04;;;24.87;41.80
62703;BME280;66022;50.448;18.122;2023-06-01T17:53:32;98777.97;;;24.75;42.80
62703;BME280;66022;50.448;18.122;2023-06-01T17:57:41;98777.00;;;24.63;43.29
62703;BME280;66022;50.448;18.122;2023-06-01T18:01:49;98777.87;;;24.51;43.75
62703;BME280;66022;50.448;18.122;2023-06-01T18:05:56;98778.31;;;24.34;44.59
62703;BME280;66022;50.448;18.122;2023-06-01T18:10:05;98778.49;;;24.23;45.29
62703;BME280;66022;50.448;18.122;2023-06-01T18:14:13;98777.94;;;24.06;46.81
62703;BME280;66022;50.448;18.122;2023-06-01T18:18:21;98778.77;;;23.93;45.44
62703;BME280;66022;50.448;18.122;2023-06-01T18:22:29;98778.53;;;23.80;45.62
62703;BME280;66022;50.448;18.122;2023-06-01T18:26:37;98778.45;;;23.64;45.50
62703;BME280;66022;50.448;18.122;2023-06-01T18:30:45;98779.39;;;23.51;46.09
62703;BME280;66022;50.448;18.122;2023-06-01T18:34:53;98778.96;;;23.35;46.64
62703;BME280;66022;50.448;18.122;2023-06-01T18:39:01;98778.80;;;23.22;46.72
62703;BME280;66022;50.448;18.122;2023-06-01T18:43:09;98779.96;;;23.09;47.05
62703;BME280;66022;50.448;18.122;2023-06-01T18:47:17;98782.28;;;22.97;47.51
62703;BME280;66022;50.448;18.122;2023-06-01T18:51:25;98784.83;;;22.86;47.55
62703;BME280;66022;50.448;18.122;2023-06-01T18:55:33;98786.53;;;22.73;48.75
62703;BME280;66022;50.448;18.122;2023-06-01T18:59:41;98788.92;;;22.62;48.13
62703;BME280;66022;50.448;18.122;2023-06-01T19:03:49;98791.63;;;22.47;51.19
62703;BME280;66022;50.448;18.122;2023-06-01T19:07:57;98794.39;;;22.36;48.47
62703;BME280;66022;50.448;18.122;2023-06-01T19:12:05;98797.19;;;22.25;48.33
62703;BME280;66022;50.448;18.122;2023-06-01T19:16:14;98798.67;;;22.05;49.85
62703;BME280;66022;50.448;18.122;2023-06-01T19:24:29;98800.48;;;21.77;51.88
62703;BME280;66022;50.448;18.122;2023-06-01T19:28:37;98802.27;;;21.64;51.01
62703;BME280;66022;50.448;18.122;2023-06-01T19:32:45;98803.68;;;21.51;51.47
62703;BME280;66022;50.448;18.122;2023-06-01T19:36:53;98804.75;;;21.36;52.49
62703;BME280;66022;50.448;18.122;2023-06-01T19:41:01;98805.17;;;21.24;52.37
62703;BME280;66022;50.448;18.122;2023-06-01T19:45:09;98806.03;;;21.09;53.68
62703;BME280;66022;50.448;18.122;2023-06-01T19:49:17;98806.72;;;20.96;51.69
62703;BME280;66022;50.448;18.122;2023-06-01T19:53:25;98807.05;;;20.84;51.60
62703;BME280;66022;50.448;18.122;2023-06-01T19:57:33;98807.90;;;20.71;51.73
62703;BME280;66022;50.448;18.122;2023-06-01T20:01:41;98809.34;;;20.59;52.29
62703;BME280;66022;50.448;18.122;2023-06-01T20:05:50;98812.11;;;20.44;52.93
62703;BME280;66022;50.448;18.122;2023-06-01T20:09:57;98813.75;;;20.33;52.62
62703;BME280;66022;50.448;18.122;2023-06-01T20:18:13;98816.77;;;20.06;52.99
62703;BME280;66022;50.448;18.122;2023-06-01T20:22:25;98817.64;;;19.97;52.49
62703;BME280;66022;50.448;18.122;2023-06-01T20:26:29;98818.69;;;19.87;53.13
62703;BME280;66022;50.448;18.122;2023-06-01T20:30:59;98820.84;;;19.79;52.58
62703;BME280;66022;50.448;18.122;2023-06-01T20:34:45;98822.52;;;19.70;53.86
62703;BME280;66022;50.448;18.122;2023-06-01T20:38:53;98824.41;;;19.63;53.96
62703;BME280;66022;50.448;18.122;2023-06-01T20:43:01;98825.51;;;19.54;54.32
62703;BME280;66022;50.448;18.122;2023-06-01T20:47:09;98826.28;;;19.43;55.10
62703;BME280;66022;50.448;18.122;2023-06-01T20:51:20;98826.58;;;19.34;55.31
62703;BME280;66022;50.448;18.122;2023-06-01T20:55:25;98827.52;;;19.22;56.48
62703;BME280;66022;50.448;18.122;2023-06-01T20:59:32;98828.96;;;19.11;55.36
62703;BME280;66022;50.448;18.122;2023-06-01T21:03:41;98830.29;;;19.00;60.26
62703;BME280;66022;50.448;18.122;2023-06-01T21:07:49;98831.70;;;18.92;55.47
62703;BME280;66022;50.448;18.122;2023-06-01T21:11:57;98832.86;;;18.85;54.56
62703;BME280;66022;50.448;18.122;2023-06-01T21:16:05;98835.71;;;18.77;55.36
62703;BME280;66022;50.448;18.122;2023-06-01T21:20:13;98838.45;;;18.71;54.99
62703;BME280;66022;50.448;18.122;2023-06-01T21:24:21;98841.49;;;18.63;56.98
62703;BME280;66022;50.448;18.122;2023-06-01T21:28:29;98844.95;;;18.58;55.21
62703;BME280;66022;50.448;18.122;2023-06-01T21:32:36;98847.13;;;18.53;55.06
62703;BME280;66022;50.448;18.122;2023-06-01T21:36:45;98849.49;;;18.46;56.08
62703;BME280;66022;50.448;18.122;2023-06-01T21:40:53;98851.79;;;18.39;55.98
62703;BME280;66022;50.448;18.122;2023-06-01T21:45:01;98854.55;;;18.30;56.90
62703;BME280;66022;50.448;18.122;2023-06-01T21:49:09;98856.45;;;18.22;56.51
62703;BME280;66022;50.448;18.122;2023-06-01T21:53:20;98858.12;;;18.13;56.95
62703;BME280;66022;50.448;18.122;2023-06-01T21:57:24;98859.74;;;18.02;57.70
62703;BME280;66022;50.448;18.122;2023-06-01T22:01:33;98861.61;;;17.93;56.78
62703;BME280;66022;50.448;18.122;2023-06-01T22:05:40;98862.60;;;17.83;57.85
62703;BME280;66022;50.448;18.122;2023-06-01T22:09:49;98864.14;;;17.74;56.97
62703;BME280;66022;50.448;18.122;2023-06-01T22:13:56;98864.45;;;17.64;62.41
62703;BME280;66022;50.448;18.122;2023-06-01T22:18:05;98865.26;;;17.59;57.86
62703;BME280;66022;50.448;18.122;2023-06-01T22:22:14;98866.24;;;17.54;57.64
62703;BME280;66022;50.448;18.122;2023-06-01T22:26:20;98866.44;;;17.46;58.46
62703;BME280;66022;50.448;18.122;2023-06-01T22:30:29;98867.16;;;17.40;58.27
62703;BME280;66022;50.448;18.122;2023-06-01T22:34:36;98867.77;;;17.33;60.99
62703;BME280;66022;50.448;18.122;2023-06-01T22:38:44;98868.59;;;17.26;58.74
62703;BME280;66022;50.448;18.122;2023-06-01T22:42:52;98869.76;;;17.19;59.38
62703;BME280;66022;50.448;18.122;2023-06-01T22:47:00;98872.06;;;17.12;59.76
62703;BME280;66022;50.448;18.122;2023-06-01T22:51:08;98874.73;;;17.05;60.30